sensor_id;sensor_type;location;lat;lon;timestamp;temperature;humidity
9723;DHT22;4900;49.306;8.500;2022-12-18T00:02:41;-4.18;76.79
9723;DHT22;4900;49.306;8.500;2022-12-18T00:05:49;-4.18;76.80
9723;DHT22;4900;49.306;8.500;2022-12-18T00:08:53;-4.20;76.77
9723;DHT22;4900;49.306;8.500;2022-12-18T00:11:56;-4.24;76.80
9723;DHT22;4900;49.306;8.500;2022-12-18T00:14:59;-4.21;76.68
9723;DHT22;4900;49.306;8.500;2022-12-18T00:18:02;-4.21;76.73
9723;DHT22;4900;49.306;8.500;2022-12-18T00:21:07;-4.24;76.79
9723;DHT22;4900;49.306;8.500;2022-12-18T00:24:11;-4.18;76.77
9723;DHT22;4900;49.306;8.500;2022-12-18T00:27:14;-4.24;76.83
9723;DHT22;4900;49.306;8.500;2022-12-18T00:30:17;-4.24;76.77
9723;DHT22;4900;49.306;8.500;2022-12-18T00:33:21;-4.23;76.79
9723;DHT22;4900;49.306;8.500;2022-12-18T00:36:29;-4.21;76.85
9723;DHT22;4900;49.306;8.500;2022-12-18T00:39:33;-4.21;76.82
9723;DHT22;4900;49.306;8.500;2022-12-18T00:42:36;-4.20;76.82
9723;DHT22;4900;49.306;8.500;2022-12-18T00:45:58;-4.21;76.84
9723;DHT22;4900;49.306;8.500;2022-12-18T00:49:01;-4.20;76.88
9723;DHT22;4900;49.306;8.500;2022-12-18T00:52:04;-4.18;76.82
9723;DHT22;4900;49.306;8.500;2022-12-18T00:55:08;-4.17;76.83
9723;DHT22;4900;49.306;8.500;2022-12-18T00:58:14;-4.17;76.75
9723;DHT22;4900;49.306;8.500;2022-12-18T01:01:18;-4.17;76.74
9723;DHT22;4900;49.306;8.500;2022-12-18T01:04:21;-4.17;76.66
9723;DHT22;4900;49.306;8.500;2022-12-18T01:07:24;-4.17;76.71
9723;DHT22;4900;49.306;8.500;2022-12-18T01:10:27;-4.17;76.63
9723;DHT22;4900;49.306;8.500;2022-12-18T01:13:30;-4.20;76.65
9723;DHT22;4900;49.306;8.500;2022-12-18T01:16:33;-4.21;76.66
9723;DHT22;4900;49.306;8.500;2022-12-18T01:19:36;-4.24;76.70
9723;DHT22;4900;49.306;8.500;2022-12-18T01:22:39;-4.23;76.63
9723;DHT22;4900;49.306;8.500;2022-12-18T01:25:42;-4.23;76.71
9723;DHT22;4900;49.306;8.500;2022-12-18T01:28:46;-4.23;76.71
9723;DHT22;4900;49.306;8.500;2022-12-18T01:31:49;-4.21;76.67
9723;DHT22;4900;49.306;8.500;2022-12-18T01:34:52;-4.24;76.72
9723;DHT22;4900;49.306;8.500;2022-12-18T01:37:55;-4.23;76.71
9723;DHT22;4900;49.306;8.500;2022-12-18T01:41:00;-4.25;76.76
9723;DHT22;4900;49.306;8.500;2022-12-18T01:47:52;-4.27;76.71
9723;DHT22;4900;49.306;8.500;2022-12-18T01:50:56;-4.30;76.71
9723;DHT22;4900;49.306;8.500;2022-12-18T01:53:59;-4.33;76.76
9723;DHT22;4900;49.306;8.500;2022-12-18T01:57:02;-4.34;76.89
9723;DHT22;4900;49.306;8.500;2022-12-18T02:00:19;-4.34;76.94
9723;DHT22;4900;49.306;8.500;2022-12-18T02:03:22;-4.33;76.90
9723;DHT22;4900;49.306;8.500;2022-12-18T02:06:32;-4.35;76.94
9723;DHT22;4900;49.306;8.500;2022-12-18T02:09:43;-4.34;76.95
9723;DHT22;4900;49.306;8.500;2022-12-18T02:26:47;-4.35;77.40
9723;DHT22;4900;49.306;8.500;2022-12-18T02:29:53;-4.41;77.56
9723;DHT22;4900;49.306;8.500;2022-12-18T02:32:57;-4.37;77.49
9723;DHT22;4900;49.306;8.500;2022-12-18T02:36:03;-4.42;77.68
9723;DHT22;4900;49.306;8.500;2022-12-18T02:39:09;-4.41;77.76
9723;DHT22;4900;49.306;8.500;2022-12-18T02:42:13;-4.40;77.84
9723;DHT22;4900;49.306;8.500;2022-12-18T02:45:17;-4.38;77.77
9723;DHT22;4900;49.306;8.500;2022-12-18T02:48:24;-4.41;77.91
9723;DHT22;4900;49.306;8.500;2022-12-18T03:05:30;-4.37;77.69
9723;DHT22;4900;49.306;8.500;2022-12-18T03:08:39;-4.41;77.46
9723;DHT22;4900;49.306;8.500;2022-12-18T03:11:51;-4.41;77.42
9723;DHT22;4900;49.306;8.500;2022-12-18T03:15:27;-4.45;77.46
9723;DHT22;4900;49.306;8.500;2022-12-18T03:22:00;-4.44;77.32
9723;DHT22;4900;49.306;8.500;2022-12-18T03:25:09;-4.44;77.29
9723;DHT22;4900;49.306;8.500;2022-12-18T03:28:20;-4.45;77.35
9723;DHT22;4900;49.306;8.500;2022-12-18T03:31:25;-4.48;77.30
9723;DHT22;4900;49.306;8.500;2022-12-18T03:34:32;-4.48;77.36
9723;DHT22;4900;49.306;8.500;2022-12-18T03:37:37;-4.49;77.35
9723;DHT22;4900;49.306;8.500;2022-12-18T03:50:22;-4.53;77.21
9723;DHT22;4900;49.306;8.500;2022-12-18T03:56:49;-4.56;77.20
9723;DHT22;4900;49.306;8.500;2022-12-18T04:00:08;-4.59;77.22
9723;DHT22;4900;49.306;8.500;2022-12-18T04:03:12;-4.61;77.22
9723;DHT22;4900;49.306;8.500;2022-12-18T04:06:16;-4.62;77.17
9723;DHT22;4900;49.306;8.500;2022-12-18T04:09:20;-4.68;77.22
9723;DHT22;4900;49.306;8.500;2022-12-18T04:12:25;-4.72;77.24
9723;DHT22;4900;49.306;8.500;2022-12-18T04:15:28;-4.75;77.48
9723;DHT22;4900;49.306;8.500;2022-12-18T04:18:31;-4.77;77.42
9723;DHT22;4900;49.306;8.500;2022-12-18T04:21:34;-4.77;77.43
9723;DHT22;4900;49.306;8.500;2022-12-18T04:24:37;-4.77;77.34
9723;DHT22;4900;49.306;8.500;2022-12-18T04:27:40;-4.77;77.20
9723;DHT22;4900;49.306;8.500;2022-12-18T04:30:43;-4.77;77.16
9723;DHT22;4900;49.306;8.500;2022-12-18T04:33:46;-4.81;77.04
9723;DHT22;4900;49.306;8.500;2022-12-18T04:36:49;-4.86;76.97
9723;DHT22;4900;49.306;8.500;2022-12-18T04:39:52;-4.86;76.95
9723;DHT22;4900;49.306;8.500;2022-12-18T04:42:55;-4.89;77.02
9723;DHT22;4900;49.306;8.500;2022-12-18T04:46:05;-4.91;77.03
9723;DHT22;4900;49.306;8.500;2022-12-18T04:49:09;-4.96;76.97
9723;DHT22;4900;49.306;8.500;2022-12-18T04:52:13;-4.96;76.99
9723;DHT22;4900;49.306;8.500;2022-12-18T04:55:16;-4.96;76.97
9723;DHT22;4900;49.306;8.500;2022-12-18T04:58:19;-4.98;77.07
9723;DHT22;4900;49.306;8.500;2022-12-18T05:01:22;-5.00;77.06
9723;DHT22;4900;49.306;8.500;2022-12-18T05:04:25;-5.03;76.95
9723;DHT22;4900;49.306;8.500;2022-12-18T05:07:29;-5.08;77.03
9723;DHT22;4900;49.306;8.500;2022-12-18T05:10:32;-5.06;77.04
9723;DHT22;4900;49.306;8.500;2022-12-18T05:13:35;-5.10;77.07
9723;DHT22;4900;49.306;8.500;2022-12-18T05:16:38;-5.14;77.06
9723;DHT22;4900;49.306;8.500;2022-12-18T05:19:41;-5.17;77.11
9723;DHT22;4900;49.306;8.500;2022-12-18T05:22:44;-5.20;77.09
9723;DHT22;4900;49.306;8.500;2022-12-18T05:25:58;-5.21;77.16
9723;DHT22;4900;49.306;8.500;2022-12-18T05:29:03;-5.21;77.04
9723;DHT22;4900;49.306;8.500;2022-12-18T05:32:06;-5.27;76.96
9723;DHT22;4900;49.306;8.500;2022-12-18T05:35:10;-5.28;76.83
9723;DHT22;4900;49.306;8.500;2022-12-18T05:38:14;-5.32;76.72
9723;DHT22;4900;49.306;8.500;2022-12-18T05:41:17;-5.35;76.57
9723;DHT22;4900;49.306;8.500;2022-12-18T05:44:20;-5.38;76.42
9723;DHT22;4900;49.306;8.500;2022-12-18T05:47:22;-5.44;76.27
9723;DHT22;4900;49.306;8.500;2022-12-18T05:50:25;-5.52;76.08
9723;DHT22;4900;49.306;8.500;2022-12-18T05:53:28;-5.52;76.08
9723;DHT22;4900;49.306;8.500;2022-12-18T05:56:31;-5.58;76.01
9723;DHT22;4900;49.306;8.500;2022-12-18T05:59:34;-5.63;75.92
9723;DHT22;4900;49.306;8.500;2022-12-18T06:02:37;-5.69;75.88
9723;DHT22;4900;49.306;8.500;2022-12-18T06:05:43;-5.73;75.82
9723;DHT22;4900;49.306;8.500;2022-12-18T06:08:47;-5.74;75.79
9723;DHT22;4900;49.306;8.500;2022-12-18T06:11:51;-5.80;75.77
9723;DHT22;4900;49.306;8.500;2022-12-18T06:14:54;-5.86;75.70
9723;DHT22;4900;49.306;8.500;2022-12-18T06:17:57;-5.89;75.73
9723;DHT22;4900;49.306;8.500;2022-12-18T06:21:00;-5.94;75.70
9723;DHT22;4900;49.306;8.500;2022-12-18T06:24:03;-5.97;75.63
9723;DHT22;4900;49.306;8.500;2022-12-18T06:27:06;-5.98;75.66
9723;DHT22;4900;49.306;8.500;2022-12-18T06:30:10;-6.04;75.59
9723;DHT22;4900;49.306;8.500;2022-12-18T06:33:14;-6.09;75.45
9723;DHT22;4900;49.306;8.500;2022-12-18T06:36:17;-6.12;75.59
9723;DHT22;4900;49.306;8.500;2022-12-18T06:39:20;-6.17;75.54
9723;DHT22;4900;49.306;8.500;2022-12-18T06:42:24;-6.24;75.46
9723;DHT22;4900;49.306;8.500;2022-12-18T06:45:27;-6.26;75.46
9723;DHT22;4900;49.306;8.500;2022-12-18T06:48:30;-6.33;75.38
9723;DHT22;4900;49.306;8.500;2022-12-18T06:51:33;-6.41;75.43
9723;DHT22;4900;49.306;8.500;2022-12-18T06:54:36;-6.43;75.52
9723;DHT22;4900;49.306;8.500;2022-12-18T06:57:39;-6.43;75.84
9723;DHT22;4900;49.306;8.500;2022-12-18T07:00:42;-6.46;76.19
9723;DHT22;4900;49.306;8.500;2022-12-18T07:03:46;-6.45;76.92
9723;DHT22;4900;49.306;8.500;2022-12-18T07:06:49;-6.45;77.42
9723;DHT22;4900;49.306;8.500;2022-12-18T07:09:53;-6.42;77.81
9723;DHT22;4900;49.306;8.500;2022-12-18T07:12:55;-6.37;78.11
9723;DHT22;4900;49.306;8.500;2022-12-18T07:16:11;-6.29;78.30
9723;DHT22;4900;49.306;8.500;2022-12-18T07:19:13;-6.26;78.27
9723;DHT22;4900;49.306;8.500;2022-12-18T07:22:17;-6.22;78.47
9723;DHT22;4900;49.306;8.500;2022-12-18T07:25:20;-6.18;78.50
9723;DHT22;4900;49.306;8.500;2022-12-18T07:28:22;-6.15;78.73
9723;DHT22;4900;49.306;8.500;2022-12-18T07:31:27;-6.12;78.87
9723;DHT22;4900;49.306;8.500;2022-12-18T07:34:30;-6.09;78.91
9723;DHT22;4900;49.306;8.500;2022-12-18T07:37:34;-6.02;78.86
9723;DHT22;4900;49.306;8.500;2022-12-18T07:40:36;-5.98;78.82
9723;DHT22;4900;49.306;8.500;2022-12-18T07:43:40;-5.93;78.71
9723;DHT22;4900;49.306;8.500;2022-12-18T07:46:43;-5.89;78.78
9723;DHT22;4900;49.306;8.500;2022-12-18T07:49:46;-5.84;78.61
9723;DHT22;4900;49.306;8.500;2022-12-18T07:52:49;-5.81;78.70
9723;DHT22;4900;49.306;8.500;2022-12-18T07:55:59;-5.79;78.68
9723;DHT22;4900;49.306;8.500;2022-12-18T07:59:03;-5.73;78.51
9723;DHT22;4900;49.306;8.500;2022-12-18T08:02:06;-5.69;78.49
9723;DHT22;4900;49.306;8.500;2022-12-18T08:05:09;-5.67;78.39
9723;DHT22;4900;49.306;8.500;2022-12-18T08:08:11;-5.60;78.36
9723;DHT22;4900;49.306;8.500;2022-12-18T08:11:16;-5.55;78.26
9723;DHT22;4900;49.306;8.500;2022-12-18T08:14:19;-5.53;78.25
9723;DHT22;4900;49.306;8.500;2022-12-18T08:17:22;-5.49;78.19
9723;DHT22;4900;49.306;8.500;2022-12-18T08:20:26;-5.45;78.14
9723;DHT22;4900;49.306;8.500;2022-12-18T08:23:29;-5.41;78.12
9723;DHT22;4900;49.306;8.500;2022-12-18T08:26:33;-5.36;78.10
9723;DHT22;4900;49.306;8.500;2022-12-18T08:29:36;-5.36;78.21
9723;DHT22;4900;49.306;8.500;2022-12-18T08:32:39;-5.30;78.10
9723;DHT22;4900;49.306;8.500;2022-12-18T08:35:42;-5.32;78.18
9723;DHT22;4900;49.306;8.500;2022-12-18T08:38:45;-5.28;78.26
9723;DHT22;4900;49.306;8.500;2022-12-18T08:41:48;-5.25;78.30
9723;DHT22;4900;49.306;8.500;2022-12-18T08:45:11;-5.20;78.19
9723;DHT22;4900;49.306;8.500;2022-12-18T08:48:15;-5.15;78.22
9723;DHT22;4900;49.306;8.500;2022-12-18T08:51:18;-5.13;78.21
9723;DHT22;4900;49.306;8.500;2022-12-18T08:54:22;-5.13;78.31
9723;DHT22;4900;49.306;8.500;2022-12-18T08:57:26;-5.06;78.21
9723;DHT22;4900;49.306;8.500;2022-12-18T09:00:28;-5.00;78.23
9723;DHT22;4900;49.306;8.500;2022-12-18T09:03:32;-4.93;78.22
9723;DHT22;4900;49.306;8.500;2022-12-18T09:06:36;-4.93;78.15
9723;DHT22;4900;49.306;8.500;2022-12-18T09:09:39;-4.89;78.23
9723;DHT22;4900;49.306;8.500;2022-12-18T09:12:44;-4.81;78.14
9723;DHT22;4900;49.306;8.500;2022-12-18T09:15:52;-4.77;78.18
9723;DHT22;4900;49.306;8.500;2022-12-18T09:18:55;-4.70;78.19
9723;DHT22;4900;49.306;8.500;2022-12-18T09:22:02;-4.63;78.09
9723;DHT22;4900;49.306;8.500;2022-12-18T09:25:05;-4.61;78.09
9723;DHT22;4900;49.306;8.500;2022-12-18T09:28:13;-4.53;78.09
9723;DHT22;4900;49.306;8.500;2022-12-18T09:31:20;-4.48;77.98
9723;DHT22;4900;49.306;8.500;2022-12-18T09:34:24;-4.44;77.95
9723;DHT22;4900;49.306;8.500;2022-12-18T09:37:27;-4.41;77.85
9723;DHT22;4900;49.306;8.500;2022-12-18T09:40:35;-4.33;77.87
9723;DHT22;4900;49.306;8.500;2022-12-18T09:43:51;-4.27;77.94
9723;DHT22;4900;49.306;8.500;2022-12-18T09:47:20;-4.18;77.86
9723;DHT22;4900;49.306;8.500;2022-12-18T09:50:35;-4.13;77.80
9723;DHT22;4900;49.306;8.500;2022-12-18T09:53:40;-4.00;77.64
9723;DHT22;4900;49.306;8.500;2022-12-18T09:56:45;-3.95;77.57
9723;DHT22;4900;49.306;8.500;2022-12-18T09:59:55;-3.85;77.49
9723;DHT22;4900;49.306;8.500;2022-12-18T10:03:08;-3.79;77.43
9723;DHT22;4900;49.306;8.500;2022-12-18T10:06:17;-3.74;77.47
9723;DHT22;4900;49.306;8.500;2022-12-18T10:09:58;-3.65;77.47
9723;DHT22;4900;49.306;8.500;2022-12-18T10:13:22;-3.59;77.45
9723;DHT22;4900;49.306;8.500;2022-12-18T10:16:38;-3.47;77.43
9723;DHT22;4900;49.306;8.500;2022-12-18T10:19:56;-3.43;77.36
9723;DHT22;4900;49.306;8.500;2022-12-18T10:26:24;-3.27;77.09
9723;DHT22;4900;49.306;8.500;2022-12-18T10:29:28;-3.16;77.06
9723;DHT22;4900;49.306;8.500;2022-12-18T10:32:31;-3.05;77.15
9723;DHT22;4900;49.306;8.500;2022-12-18T10:35:34;-2.96;77.12
9723;DHT22;4900;49.306;8.500;2022-12-18T10:38:40;-2.92;77.12
9723;DHT22;4900;49.306;8.500;2022-12-18T10:42:16;-2.84;76.90
9723;DHT22;4900;49.306;8.500;2022-12-18T10:45:20;-2.71;76.87
9723;DHT22;4900;49.306;8.500;2022-12-18T10:48:23;-2.64;76.87
9723;DHT22;4900;49.306;8.500;2022-12-18T10:51:31;-2.58;76.67
9723;DHT22;4900;49.306;8.500;2022-12-18T10:54:38;-2.53;76.61
9723;DHT22;4900;49.306;8.500;2022-12-18T10:57:41;-2.46;76.45
9723;DHT22;4900;49.306;8.500;2022-12-18T11:01:03;-2.36;76.45
9723;DHT22;4900;49.306;8.500;2022-12-18T11:04:09;-2.30;76.39
9723;DHT22;4900;49.306;8.500;2022-12-18T11:07:12;-2.24;76.28
9723;DHT22;4900;49.306;8.500;2022-12-18T11:10:17;-2.19;76.56
9723;DHT22;4900;49.306;8.500;2022-12-18T11:13:22;-2.12;76.40
9723;DHT22;4900;49.306;8.500;2022-12-18T11:16:27;-2.07;76.46
9723;DHT22;4900;49.306;8.500;2022-12-18T11:19:34;-2.01;76.41
9723;DHT22;4900;49.306;8.500;2022-12-18T11:22:39;-1.96;76.33
9723;DHT22;4900;49.306;8.500;2022-12-18T11:25:57;-1.94;76.23
9723;DHT22;4900;49.306;8.500;2022-12-18T11:29:16;-1.87;76.17
9723;DHT22;4900;49.306;8.500;2022-12-18T11:35:48;-1.75;75.94
9723;DHT22;4900;49.306;8.500;2022-12-18T11:38:55;-1.68;76.02
9723;DHT22;4900;49.306;8.500;2022-12-18T11:42:24;-1.61;76.01
9723;DHT22;4900;49.306;8.500;2022-12-18T11:45:31;-1.56;75.83
9723;DHT22;4900;49.306;8.500;2022-12-18T11:52:41;-1.49;75.75
9723;DHT22;4900;49.306;8.500;2022-12-18T12:02:41;-1.29;75.60
9723;DHT22;4900;49.306;8.500;2022-12-18T12:05:57;-1.29;75.61
9723;DHT22;4900;49.306;8.500;2022-12-18T12:12:51;-1.12;75.42
9723;DHT22;4900;49.306;8.500;2022-12-18T12:16:18;-1.07;75.35
9723;DHT22;4900;49.306;8.500;2022-12-18T12:23:02;-0.94;75.09
9723;DHT22;4900;49.306;8.500;2022-12-18T12:26:12;-0.85;74.99
9723;DHT22;4900;49.306;8.500;2022-12-18T12:29:38;-0.80;74.89
9723;DHT22;4900;49.306;8.500;2022-12-18T12:39:42;-0.66;74.60
9723;DHT22;4900;49.306;8.500;2022-12-18T12:42:59;-0.64;74.52
9723;DHT22;4900;49.306;8.500;2022-12-18T12:46:17;-0.61;74.38
9723;DHT22;4900;49.306;8.500;2022-12-18T12:49:31;-0.53;74.36
9723;DHT22;4900;49.306;8.500;2022-12-18T12:52:42;-0.49;74.22
9723;DHT22;4900;49.306;8.500;2022-12-18T12:55:46;-0.43;74.09
9723;DHT22;4900;49.306;8.500;2022-12-18T13:05:50;-0.29;74.02
9723;DHT22;4900;49.306;8.500;2022-12-18T13:08:58;-0.26;74.05
9723;DHT22;4900;49.306;8.500;2022-12-18T13:12:09;-0.22;73.89
9723;DHT22;4900;49.306;8.500;2022-12-18T13:15:39;-0.25;73.88
9723;DHT22;4900;49.306;8.500;2022-12-18T13:18:49;-0.19;73.86
9723;DHT22;4900;49.306;8.500;2022-12-18T13:21:56;-0.17;73.80
9723;DHT22;4900;49.306;8.500;2022-12-18T13:25:00;-0.15;73.72
9723;DHT22;4900;49.306;8.500;2022-12-18T13:28:14;-0.12;73.62
9723;DHT22;4900;49.306;8.500;2022-12-18T13:34:40;-0.10;73.52
9723;DHT22;4900;49.306;8.500;2022-12-18T13:37:51;-0.07;73.56
9723;DHT22;4900;49.306;8.500;2022-12-18T13:40:57;-0.10;73.50
9723;DHT22;4900;49.306;8.500;2022-12-18T13:47:36;-0.14;73.32
9723;DHT22;4900;49.306;8.500;2022-12-18T13:50:55;-0.14;73.35
9723;DHT22;4900;49.306;8.500;2022-12-18T13:54:19;-0.17;73.43
9723;DHT22;4900;49.306;8.500;2022-12-18T14:00:32;-0.21;73.56
9723;DHT22;4900;49.306;8.500;2022-12-18T14:03:35;-0.19;73.66
9723;DHT22;4900;49.306;8.500;2022-12-18T14:06:38;-0.25;73.71
9723;DHT22;4900;49.306;8.500;2022-12-18T14:09:44;-0.25;73.50
9723;DHT22;4900;49.306;8.500;2022-12-18T14:12:49;-0.33;73.72
9723;DHT22;4900;49.306;8.500;2022-12-18T14:16:04;-0.31;73.64
9723;DHT22;4900;49.306;8.500;2022-12-18T14:19:14;-0.40;73.75
9723;DHT22;4900;49.306;8.500;2022-12-18T14:22:20;-0.38;73.79
9723;DHT22;4900;49.306;8.500;2022-12-18T14:25:26;-0.36;73.82
9723;DHT22;4900;49.306;8.500;2022-12-18T14:28:30;-0.39;73.91
9723;DHT22;4900;49.306;8.500;2022-12-18T14:31:34;-0.45;74.00
9723;DHT22;4900;49.306;8.500;2022-12-18T14:34:38;-0.50;74.02
9723;DHT22;4900;49.306;8.500;2022-12-18T14:37:41;-0.52;74.09
9723;DHT22;4900;49.306;8.500;2022-12-18T14:40:44;-0.54;74.13
9723;DHT22;4900;49.306;8.500;2022-12-18T14:43:50;-0.59;74.22
9723;DHT22;4900;49.306;8.500;2022-12-18T14:46:54;-0.60;74.22
9723;DHT22;4900;49.306;8.500;2022-12-18T14:49:57;-0.60;74.20
9723;DHT22;4900;49.306;8.500;2022-12-18T14:53:00;-0.63;74.23
9723;DHT22;4900;49.306;8.500;2022-12-18T14:56:14;-0.67;74.44
9723;DHT22;4900;49.306;8.500;2022-12-18T14:59:21;-0.74;74.55
9723;DHT22;4900;49.306;8.500;2022-12-18T15:02:26;-0.83;74.62
9723;DHT22;4900;49.306;8.500;2022-12-18T15:05:31;-0.89;74.54
9723;DHT22;4900;49.306;8.500;2022-12-18T15:08:36;-0.94;74.47
9723;DHT22;4900;49.306;8.500;2022-12-18T15:14:43;-1.11;74.45
9723;DHT22;4900;49.306;8.500;2022-12-18T15:17:47;-1.18;74.69
9723;DHT22;4900;49.306;8.500;2022-12-18T15:20:54;-1.23;74.80
9723;DHT22;4900;49.306;8.500;2022-12-18T15:23:59;-1.33;74.87
9723;DHT22;4900;49.306;8.500;2022-12-18T15:27:02;-1.36;75.19
9723;DHT22;4900;49.306;8.500;2022-12-18T15:33:25;-1.44;75.18
9723;DHT22;4900;49.306;8.500;2022-12-18T15:36:29;-1.47;75.25
9723;DHT22;4900;49.306;8.500;2022-12-18T15:39:33;-1.54;75.44
9723;DHT22;4900;49.306;8.500;2022-12-18T15:42:37;-1.59;75.57
9723;DHT22;4900;49.306;8.500;2022-12-18T15:46:16;-1.66;75.69
9723;DHT22;4900;49.306;8.500;2022-12-18T15:49:20;-1.68;75.81
9723;DHT22;4900;49.306;8.500;2022-12-18T15:52:23;-1.67;75.94
9723;DHT22;4900;49.306;8.500;2022-12-18T15:55:31;-1.68;75.94
9723;DHT22;4900;49.306;8.500;2022-12-18T15:58:55;-1.71;76.16
9723;DHT22;4900;49.306;8.500;2022-12-18T16:01:58;-1.75;76.19
9723;DHT22;4900;49.306;8.500;2022-12-18T16:05:01;-1.74;76.38
9723;DHT22;4900;49.306;8.500;2022-12-18T16:08:04;-1.75;76.45
9723;DHT22;4900;49.306;8.500;2022-12-18T16:11:22;-1.72;76.48
9723;DHT22;4900;49.306;8.500;2022-12-18T16:14:46;-1.74;76.54
9723;DHT22;4900;49.306;8.500;2022-12-18T16:17:49;-1.75;76.72
9723;DHT22;4900;49.306;8.500;2022-12-18T16:20:53;-1.77;76.93
9723;DHT22;4900;49.306;8.500;2022-12-18T16:23:56;-1.75;76.92
9723;DHT22;4900;49.306;8.500;2022-12-18T16:27:00;-1.75;77.13
9723;DHT22;4900;49.306;8.500;2022-12-18T16:30:04;-1.72;77.10
9723;DHT22;4900;49.306;8.500;2022-12-18T16:33:09;-1.75;77.35
9723;DHT22;4900;49.306;8.500;2022-12-18T16:36:13;-1.72;77.31
9723;DHT22;4900;49.306;8.500;2022-12-18T16:39:16;-1.72;77.42
9723;DHT22;4900;49.306;8.500;2022-12-18T16:42:20;-1.70;77.52
9723;DHT22;4900;49.306;8.500;2022-12-18T16:45:26;-1.67;77.47
9723;DHT22;4900;49.306;8.500;2022-12-18T16:48:35;-1.68;77.65
9723;DHT22;4900;49.306;8.500;2022-12-18T16:51:39;-1.68;77.81
9723;DHT22;4900;49.306;8.500;2022-12-18T16:54:42;-1.64;77.95
9723;DHT22;4900;49.306;8.500;2022-12-18T16:57:46;-1.66;77.85
9723;DHT22;4900;49.306;8.500;2022-12-18T17:00:49;-1.63;78.05
9723;DHT22;4900;49.306;8.500;2022-12-18T17:03:54;-1.60;77.99
9723;DHT22;4900;49.306;8.500;2022-12-18T17:06:58;-1.59;77.93
9723;DHT22;4900;49.306;8.500;2022-12-18T17:10:01;-1.57;77.92
9723;DHT22;4900;49.306;8.500;2022-12-18T17:13:05;-1.59;77.94
9723;DHT22;4900;49.306;8.500;2022-12-18T17:16:10;-1.60;77.89
9723;DHT22;4900;49.306;8.500;2022-12-18T17:19:13;-1.54;77.87
9723;DHT22;4900;49.306;8.500;2022-12-18T17:22:19;-1.59;77.93
9723;DHT22;4900;49.306;8.500;2022-12-18T17:25:23;-1.57;77.92
9723;DHT22;4900;49.306;8.500;2022-12-18T17:28:27;-1.61;77.97
9723;DHT22;4900;49.306;8.500;2022-12-18T17:31:31;-1.64;78.03
9723;DHT22;4900;49.306;8.500;2022-12-18T17:34:35;-1.63;78.05
9723;DHT22;4900;49.306;8.500;2022-12-18T17:37:39;-1.63;78.02
9723;DHT22;4900;49.306;8.500;2022-12-18T17:40:42;-1.60;77.95
9723;DHT22;4900;49.306;8.500;2022-12-18T17:43:58;-1.63;78.02
9723;DHT22;4900;49.306;8.500;2022-12-18T17:47:02;-1.60;78.00
9723;DHT22;4900;49.306;8.500;2022-12-18T17:50:09;-1.60;77.94
9723;DHT22;4900;49.306;8.500;2022-12-18T17:53:12;-1.59;77.98
9723;DHT22;4900;49.306;8.500;2022-12-18T17:56:20;-1.59;78.04
9723;DHT22;4900;49.306;8.500;2022-12-18T17:59:23;-1.59;78.15
9723;DHT22;4900;49.306;8.500;2022-12-18T18:02:27;-1.57;78.21
9723;DHT22;4900;49.306;8.500;2022-12-18T18:05:34;-1.59;78.22
9723;DHT22;4900;49.306;8.500;2022-12-18T18:08:36;-1.60;78.23
9723;DHT22;4900;49.306;8.500;2022-12-18T18:11:40;-1.59;78.27
9723;DHT22;4900;49.306;8.500;2022-12-18T18:15:02;-1.56;78.23
9723;DHT22;4900;49.306;8.500;2022-12-18T18:18:05;-1.54;78.15
9723;DHT22;4900;49.306;8.500;2022-12-18T18:21:08;-1.51;78.03
9723;DHT22;4900;49.306;8.500;2022-12-18T18:24:14;-1.54;78.08
9723;DHT22;4900;49.306;8.500;2022-12-18T18:27:18;-1.54;77.91
9723;DHT22;4900;49.306;8.500;2022-12-18T18:30:21;-1.53;77.84
9723;DHT22;4900;49.306;8.500;2022-12-18T18:33:24;-1.57;77.83
9723;DHT22;4900;49.306;8.500;2022-12-18T18:36:26;-1.57;77.83
9723;DHT22;4900;49.306;8.500;2022-12-18T18:39:29;-1.54;77.79
9723;DHT22;4900;49.306;8.500;2022-12-18T18:42:32;-1.56;77.96
9723;DHT22;4900;49.306;8.500;2022-12-18T18:45:35;-1.57;77.93
9723;DHT22;4900;49.306;8.500;2022-12-18T18:48:40;-1.51;77.92
9723;DHT22;4900;49.306;8.500;2022-12-18T18:51:45;-1.51;77.93
9723;DHT22;4900;49.306;8.500;2022-12-18T18:54:48;-1.50;78.05
9723;DHT22;4900;49.306;8.500;2022-12-18T18:57:51;-1.47;78.17
9723;DHT22;4900;49.306;8.500;2022-12-18T19:00:59;-1.46;78.08
9723;DHT22;4900;49.306;8.500;2022-12-18T19:04:04;-1.50;78.12
9723;DHT22;4900;49.306;8.500;2022-12-18T19:07:08;-1.44;78.08
9723;DHT22;4900;49.306;8.500;2022-12-18T19:10:11;-1.46;78.10
9723;DHT22;4900;49.306;8.500;2022-12-18T19:13:14;-1.47;78.08
9723;DHT22;4900;49.306;8.500;2022-12-18T19:16:24;-1.44;78.07
9723;DHT22;4900;49.306;8.500;2022-12-18T19:19:28;-1.40;78.01
9723;DHT22;4900;49.306;8.500;2022-12-18T19:22:31;-1.42;77.99
9723;DHT22;4900;49.306;8.500;2022-12-18T19:25:38;-1.39;78.01
9723;DHT22;4900;49.306;8.500;2022-12-18T19:28:42;-1.42;77.96
9723;DHT22;4900;49.306;8.500;2022-12-18T19:31:45;-1.38;77.99
9723;DHT22;4900;49.306;8.500;2022-12-18T19:34:48;-1.36;77.93
9723;DHT22;4900;49.306;8.500;2022-12-18T19:37:51;-1.31;77.87
9723;DHT22;4900;49.306;8.500;2022-12-18T19:40:54;-1.32;77.83
9723;DHT22;4900;49.306;8.500;2022-12-18T19:43:57;-1.35;77.83
9723;DHT22;4900;49.306;8.500;2022-12-18T19:47:00;-1.31;77.71
9723;DHT22;4900;49.306;8.500;2022-12-18T19:50:03;-1.28;77.61
9723;DHT22;4900;49.306;8.500;2022-12-18T19:53:07;-1.23;77.61
9723;DHT22;4900;49.306;8.500;2022-12-18T19:56:13;-1.25;77.61
9723;DHT22;4900;49.306;8.500;2022-12-18T19:59:17;-1.22;77.61
9723;DHT22;4900;49.306;8.500;2022-12-18T20:02:21;-1.25;77.60
9723;DHT22;4900;49.306;8.500;2022-12-18T20:05:24;-1.23;77.57
9723;DHT22;4900;49.306;8.500;2022-12-18T20:08:27;-1.22;77.43
9723;DHT22;4900;49.306;8.500;2022-12-18T20:11:32;-1.22;77.48
9723;DHT22;4900;49.306;8.500;2022-12-18T20:14:36;-1.22;77.47
9723;DHT22;4900;49.306;8.500;2022-12-18T20:17:39;-1.19;77.49
9723;DHT22;4900;49.306;8.500;2022-12-18T20:20:42;-1.21;77.36
9723;DHT22;4900;49.306;8.500;2022-12-18T20:23:45;-1.18;77.31
9723;DHT22;4900;49.306;8.500;2022-12-18T20:26:48;-1.25;77.35
9723;DHT22;4900;49.306;8.500;2022-12-18T20:29:51;-1.16;77.20
9723;DHT22;4900;49.306;8.500;2022-12-18T20:32:55;-1.16;77.14
9723;DHT22;4900;49.306;8.500;2022-12-18T20:36:03;-1.12;77.05
9723;DHT22;4900;49.306;8.500;2022-12-18T20:39:07;-1.16;77.10
9723;DHT22;4900;49.306;8.500;2022-12-18T20:42:11;-1.14;76.98
9723;DHT22;4900;49.306;8.500;2022-12-18T20:45:14;-1.14;77.11
9723;DHT22;4900;49.306;8.500;2022-12-18T20:48:17;-1.16;76.99
9723;DHT22;4900;49.306;8.500;2022-12-18T20:51:20;-1.14;77.01
9723;DHT22;4900;49.306;8.500;2022-12-18T20:54:25;-1.12;76.95
9723;DHT22;4900;49.306;8.500;2022-12-18T20:57:28;-1.16;76.93
9723;DHT22;4900;49.306;8.500;2022-12-18T21:00:31;-1.21;77.13
9723;DHT22;4900;49.306;8.500;2022-12-18T21:03:36;-1.18;77.06
9723;DHT22;4900;49.306;8.500;2022-12-18T21:06:39;-1.22;77.10
9723;DHT22;4900;49.306;8.500;2022-12-18T21:09:43;-1.22;77.14
9723;DHT22;4900;49.306;8.500;2022-12-18T21:12:46;-1.18;77.09
9723;DHT22;4900;49.306;8.500;2022-12-18T21:15:52;-1.18;77.06
9723;DHT22;4900;49.306;8.500;2022-12-18T21:18:56;-1.19;77.17
9723;DHT22;4900;49.306;8.500;2022-12-18T21:21:59;-1.16;77.20
9723;DHT22;4900;49.306;8.500;2022-12-18T21:25:03;-1.15;77.17
9723;DHT22;4900;49.306;8.500;2022-12-18T21:28:07;-1.12;77.16
9723;DHT22;4900;49.306;8.500;2022-12-18T21:31:10;-1.12;77.12
9723;DHT22;4900;49.306;8.500;2022-12-18T21:34:21;-1.11;77.15
9723;DHT22;4900;49.306;8.500;2022-12-18T21:37:25;-1.08;77.19
9723;DHT22;4900;49.306;8.500;2022-12-18T21:40:28;-1.11;77.26
9723;DHT22;4900;49.306;8.500;2022-12-18T21:43:31;-1.07;77.16
9723;DHT22;4900;49.306;8.500;2022-12-18T21:46:53;-1.11;77.20
9723;DHT22;4900;49.306;8.500;2022-12-18T21:49:56;-1.12;77.22
9723;DHT22;4900;49.306;8.500;2022-12-18T21:52:59;-1.14;77.30
9723;DHT22;4900;49.306;8.500;2022-12-18T21:56:02;-1.09;77.26
9723;DHT22;4900;49.306;8.500;2022-12-18T21:59:05;-1.09;77.19